createdAt,value
2022-12-24T00:00:02.360Z,27.30
2022-12-24T00:02:28.991Z,26.45
2022-12-24T00:05:00.589Z,16.25
2022-12-24T00:07:28.606Z,20.95
2022-12-24T00:09:55.231Z,22.45
2022-12-24T00:12:21.841Z,21.73
2022-12-24T00:14:48.409Z,20.70
2022-12-24T00:17:15.092Z,15.32
2022-12-24T00:19:43.285Z,19.58
2022-12-24T00:22:10.189Z,18.95
2022-12-24T00:24:37.099Z,19.10
2022-12-24T00:27:05.709Z,21.95
2022-12-24T00:29:33.135Z,31.73
2022-12-24T00:31:59.750Z,32.33
2022-12-24T00:34:27.008Z,32.92
2022-12-24T00:39:20.066Z,30.77
2022-12-24T00:41:46.716Z,21.17
2022-12-24T00:44:13.338Z,23.95
2022-12-24T00:46:41.676Z,25.08
2022-12-24T00:49:09.149Z,23.90
2022-12-24T00:51:37.143Z,25.40
2022-12-24T00:54:04.627Z,25.95
2022-12-24T00:56:31.509Z,27.52
2022-12-24T00:58:58.237Z,26.60
2022-12-24T01:01:26.263Z,22.58
2022-12-24T01:04:13.568Z,20.35
2022-12-24T01:06:40.378Z,18.65
2022-12-24T01:09:06.912Z,18.00
2022-12-24T01:11:33.570Z,18.10
2022-12-24T01:14:00.133Z,18.77
2022-12-24T01:16:26.725Z,13.98
2022-12-24T01:18:53.560Z,19.70
2022-12-24T01:21:20.082Z,19.33
2022-12-24T01:23:46.900Z,15.45
2022-12-24T01:26:13.559Z,18.90
2022-12-24T01:28:40.455Z,13.55
2022-12-24T01:31:18.250Z,17.58
2022-12-24T01:33:46.271Z,17.38
2022-12-24T01:36:13.828Z,17.13
2022-12-24T01:38:40.717Z,17.80
2022-12-24T01:41:26.310Z,18.70
2022-12-24T01:43:52.899Z,17.98
2022-12-24T01:46:32.811Z,17.00
2022-12-24T01:49:02.729Z,16.40
2022-12-24T01:51:43.136Z,29.60
2022-12-24T01:54:15.787Z,31.77
2022-12-24T01:56:48.949Z,31.70
2022-12-24T01:59:18.226Z,33.58
2022-12-24T02:01:47.170Z,33.15
2022-12-24T02:04:38.562Z,30.17
2022-12-24T02:07:05.175Z,21.70
2022-12-24T02:09:33.991Z,18.02
2022-12-24T02:12:01.357Z,18.50
2022-12-24T02:14:29.577Z,17.02
2022-12-24T02:17:17.546Z,16.15
2022-12-24T02:20:03.353Z,17.52
2022-12-24T02:22:51.489Z,13.27
2022-12-24T02:25:46.945Z,18.98
2022-12-24T02:28:34.682Z,19.95
2022-12-24T02:31:06.433Z,21.67
2022-12-24T02:33:42.970Z,23.52
2022-12-24T02:36:35.190Z,22.33
2022-12-24T02:39:05.928Z,17.70
2022-12-24T02:41:55.489Z,15.23
2022-12-24T02:44:26.086Z,15.27
2022-12-24T02:46:53.300Z,15.75
2022-12-24T02:49:20.015Z,15.10
2022-12-24T02:51:46.669Z,14.52
2022-12-24T02:54:15.075Z,11.32
2022-12-24T02:56:44.306Z,14.95
2022-12-24T02:59:55.518Z,15.13
2022-12-24T03:02:45.627Z,18.48
2022-12-24T03:05:40.376Z,21.27
2022-12-24T03:08:28.193Z,17.60
2022-12-24T03:11:02.934Z,16.58
2022-12-24T03:13:29.924Z,15.48
2022-12-24T03:15:56.597Z,18.75
2022-12-24T03:18:25.870Z,27.70
2022-12-24T03:21:12.278Z,29.58
2022-12-24T03:23:39.032Z,31.13
2022-12-24T03:26:09.641Z,29.75
2022-12-24T03:28:39.750Z,32.83
2022-12-24T03:31:08.865Z,30.45
2022-12-24T03:33:36.084Z,30.25
2022-12-24T03:38:29.692Z,24.98
2022-12-24T03:40:56.756Z,18.02
2022-12-24T03:43:23.507Z,24.83
2022-12-24T03:45:50.138Z,24.63
2022-12-24T03:48:16.722Z,15.75
2022-12-24T03:50:43.349Z,15.60
2022-12-24T03:53:09.898Z,15.10
2022-12-24T03:55:37.958Z,14.00
2022-12-24T03:58:04.533Z,13.98
2022-12-24T04:00:31.085Z,13.43
2022-12-24T04:02:57.670Z,20.88
2022-12-24T04:05:24.299Z,14.52
2022-12-24T04:07:50.847Z,14.60
2022-12-24T04:10:17.419Z,14.55
2022-12-24T04:12:44.061Z,14.45
2022-12-24T04:15:11.038Z,13.63
2022-12-24T04:17:37.869Z,16.40
2022-12-24T04:20:04.894Z,21.63
2022-12-24T04:22:32.555Z,24.00
2022-12-24T04:24:59.186Z,26.38
2022-12-24T04:27:30.279Z,20.52
2022-12-24T04:29:57.525Z,16.48
2022-12-24T04:32:26.859Z,13.30
2022-12-24T04:34:53.646Z,13.90
2022-12-24T04:37:20.239Z,14.85
2022-12-24T04:39:47.325Z,15.13
2022-12-24T04:42:13.936Z,16.70
2022-12-24T04:44:40.504Z,17.75
2022-12-24T04:47:07.072Z,20.08
2022-12-24T04:49:33.605Z,24.95
2022-12-24T04:52:00.216Z,24.05
2022-12-24T04:54:26.962Z,25.27
2022-12-24T04:56:53.749Z,26.30
2022-12-24T04:59:20.329Z,28.88
2022-12-24T05:01:47.106Z,24.77
2022-12-24T05:04:13.817Z,27.77
2022-12-24T05:06:40.337Z,23.95
2022-12-24T05:09:06.898Z,19.52
2022-12-24T05:11:33.557Z,21.35
2022-12-24T05:14:00.325Z,20.60
2022-12-24T05:16:27.249Z,22.38
2022-12-24T05:18:55.695Z,25.90
2022-12-24T05:21:24.976Z,21.90
2022-12-24T05:24:10.677Z,20.50
2022-12-24T05:26:46.095Z,21.02
2022-12-24T05:29:13.210Z,20.38
2022-12-24T05:34:08.327Z,17.80
2022-12-24T05:36:35.281Z,16.95
2022-12-24T05:39:02.440Z,26.42
2022-12-24T05:43:55.525Z,28.35
2022-12-24T05:46:23.551Z,29.42
2022-12-24T05:48:50.845Z,26.92
2022-12-24T05:51:19.726Z,29.00
2022-12-24T05:53:47.363Z,27.75
2022-12-24T05:56:16.969Z,34.10
2022-12-24T05:58:44.010Z,35.53
2022-12-24T06:01:11.841Z,34.78
2022-12-24T06:03:38.905Z,34.05
2022-12-24T06:06:20.982Z,34.97
2022-12-24T06:08:49.341Z,34.00
2022-12-24T06:11:19.382Z,36.17
2022-12-24T06:13:45.986Z,100.57
2022-12-24T06:16:15.880Z,64.60
2022-12-24T06:18:42.771Z,53.78
2022-12-24T06:21:09.745Z,39.10
2022-12-24T06:23:39.279Z,46.70
2022-12-24T06:26:07.232Z,55.40
2022-12-24T06:28:37.190Z,48.65
2022-12-24T06:31:05.817Z,42.22
2022-12-24T06:33:34.105Z,46.97
2022-12-24T06:36:00.912Z,61.05
2022-12-24T06:38:29.534Z,65.65
2022-12-24T06:40:56.123Z,64.35
2022-12-24T06:43:22.772Z,83.38
2022-12-24T06:45:49.448Z,73.53
2022-12-24T06:48:16.223Z,64.00
2022-12-24T06:50:43.242Z,59.40
2022-12-24T06:53:10.651Z,63.88
2022-12-24T06:55:38.069Z,65.25
2022-12-24T06:58:04.794Z,50.42
2022-12-24T07:00:31.466Z,51.97
2022-12-24T07:02:58.208Z,54.03
2022-12-24T07:05:25.208Z,49.17
2022-12-24T07:07:51.787Z,47.30
2022-12-24T07:10:20.260Z,65.40
2022-12-24T07:12:47.157Z,55.78
2022-12-24T07:15:14.879Z,56.15
2022-12-24T07:17:41.793Z,57.20
2022-12-24T07:20:11.994Z,64.93
2022-12-24T07:22:38.592Z,59.85
2022-12-24T07:25:05.551Z,60.85
2022-12-24T07:27:32.227Z,59.33
2022-12-24T07:29:58.800Z,58.13
2022-12-24T07:32:25.422Z,56.22
2022-12-24T07:34:51.995Z,42.25
2022-12-24T07:37:18.617Z,51.65
2022-12-24T07:39:45.357Z,58.15
2022-12-24T07:42:11.905Z,37.42
2022-12-24T07:44:38.447Z,50.42
2022-12-24T07:47:05.041Z,62.13
2022-12-24T07:49:31.776Z,47.30
2022-12-24T07:51:58.343Z,45.22
2022-12-24T07:54:24.948Z,36.83
2022-12-24T07:56:51.519Z,42.67
2022-12-24T07:59:18.079Z,39.25
2022-12-24T08:01:45.794Z,39.78
2022-12-24T08:04:12.768Z,45.33
2022-12-24T08:06:39.835Z,41.25
2022-12-24T08:09:06.528Z,38.08
2022-12-24T08:11:33.234Z,35.20
2022-12-24T08:13:59.810Z,33.42
2022-12-24T08:16:26.464Z,39.90
2022-12-24T08:18:53.203Z,29.02
2022-12-24T08:21:19.737Z,37.53
2022-12-24T08:23:47.571Z,35.15
2022-12-24T08:26:14.188Z,41.33
2022-12-24T08:28:41.090Z,58.13
2022-12-24T08:31:07.763Z,49.47
2022-12-24T08:33:34.732Z,44.28
2022-12-24T08:36:02.268Z,41.50
2022-12-24T08:38:29.164Z,62.40
2022-12-24T08:40:55.808Z,40.70
2022-12-24T08:43:22.829Z,30.23
2022-12-24T08:45:50.076Z,39.92
2022-12-24T08:48:17.332Z,37.70
2022-12-24T08:50:44.825Z,42.92
2022-12-24T08:53:11.593Z,40.92
2022-12-24T08:55:38.316Z,41.95
2022-12-24T08:58:05.114Z,30.25
2022-12-24T09:00:31.785Z,38.30
2022-12-24T09:02:58.460Z,30.40
2022-12-24T09:05:26.126Z,35.83
2022-12-24T09:07:53.125Z,46.58
2022-12-24T09:10:20.354Z,38.28
2022-12-24T09:15:14.378Z,39.17
2022-12-24T09:17:41.702Z,34.45
2022-12-24T09:22:37.602Z,54.85
2022-12-24T09:25:06.362Z,52.15
2022-12-24T09:27:33.696Z,44.13
2022-12-24T09:32:26.787Z,39.97
2022-12-24T09:34:53.781Z,39.33
2022-12-24T09:37:20.551Z,58.53
2022-12-24T09:39:47.251Z,33.50
2022-12-24T09:42:28.852Z,38.67
2022-12-24T09:45:10.189Z,41.22
2022-12-24T09:47:53.231Z,42.90
2022-12-24T09:50:49.013Z,45.40
2022-12-24T09:53:18.684Z,39.10
2022-12-24T09:55:52.064Z,38.28
2022-12-24T09:58:25.694Z,37.45
2022-12-24T10:00:53.154Z,43.13
2022-12-24T10:03:19.996Z,31.95
2022-12-24T10:06:15.962Z,32.65
2022-12-24T10:08:45.283Z,32.17
2022-12-24T10:11:33.598Z,28.55
2022-12-24T10:14:18.494Z,28.90
2022-12-24T10:17:04.822Z,24.42
2022-12-24T10:19:57.569Z,27.05
2022-12-24T10:22:34.472Z,23.83
2022-12-24T10:25:22.933Z,27.25
2022-12-24T10:27:51.762Z,27.25
2022-12-24T10:30:22.004Z,25.63
2022-12-24T10:32:51.146Z,24.92
2022-12-24T10:35:29.274Z,25.52
2022-12-24T10:37:58.102Z,22.85
2022-12-24T10:40:35.105Z,23.02
2022-12-24T10:43:01.812Z,21.65
2022-12-24T10:45:39.958Z,20.20
2022-12-24T10:48:12.095Z,22.20
2022-12-24T10:50:54.525Z,22.42
2022-12-24T10:53:42.185Z,22.58
2022-12-24T10:56:11.954Z,21.95
2022-12-24T10:58:44.735Z,20.88
2022-12-24T11:01:12.268Z,20.35
2022-12-24T11:03:39.901Z,20.45
2022-12-24T11:06:08.435Z,21.48
2022-12-24T11:08:37.204Z,21.92
2022-12-24T11:11:07.427Z,20.92
2022-12-24T11:13:46.899Z,19.60
2022-12-24T11:16:30.719Z,19.02
2022-12-24T11:18:59.820Z,25.15
2022-12-24T11:21:32.629Z,20.20
2022-12-24T11:24:08.903Z,20.75
2022-12-24T11:26:35.908Z,21.10
2022-12-24T11:29:08.781Z,21.27
2022-12-24T11:31:37.515Z,11.82
2022-12-24T11:34:30.501Z,17.02
2022-12-24T11:37:31.118Z,9.30
2022-12-24T11:40:01.323Z,9.52
2022-12-24T11:42:37.099Z,11.40
2022-12-24T11:45:14.934Z,11.52
2022-12-24T11:47:42.042Z,13.23
2022-12-24T11:50:35.617Z,21.83
2022-12-24T11:53:25.353Z,23.67
2022-12-24T11:55:55.779Z,27.17
2022-12-24T11:58:32.011Z,34.00
2022-12-24T12:01:15.440Z,30.20
2022-12-24T12:03:49.812Z,29.75
2022-12-24T12:06:36.684Z,29.63
2022-12-24T12:09:10.734Z,36.53
2022-12-24T12:11:40.425Z,40.80
2022-12-24T12:14:14.866Z,29.83
2022-12-24T12:17:06.804Z,31.70
2022-12-24T12:19:42.530Z,27.73
2022-12-24T12:22:20.118Z,30.88
2022-12-24T12:24:51.432Z,27.77
2022-12-24T12:27:31.826Z,24.10
2022-12-24T12:30:16.058Z,22.63
2022-12-24T12:32:53.842Z,26.50
2022-12-24T12:35:33.812Z,29.02
2022-12-24T12:38:05.281Z,30.15
2022-12-24T12:40:50.436Z,29.48
2022-12-24T12:43:54.772Z,35.30
2022-12-24T12:46:36.634Z,34.00
2022-12-24T12:49:18.159Z,32.90
2022-12-24T12:51:47.577Z,32.08
2022-12-24T12:54:36.083Z,29.98
2022-12-24T12:57:11.255Z,31.38
2022-12-24T12:59:44.653Z,31.02
2022-12-24T13:02:41.732Z,29.50
2022-12-24T13:05:26.985Z,27.70
2022-12-24T13:08:17.851Z,29.65
2022-12-24T13:10:53.320Z,38.70
2022-12-24T13:13:37.446Z,28.92
2022-12-24T13:16:25.919Z,25.58
2022-12-24T13:18:52.454Z,30.80
2022-12-24T13:21:23.673Z,29.27
2022-12-24T13:23:50.953Z,28.95
2022-12-24T13:26:18.592Z,28.83
2022-12-24T13:28:45.153Z,30.83
2022-12-24T13:31:11.716Z,30.48
2022-12-24T13:33:38.249Z,24.85
2022-12-24T13:36:06.295Z,24.77
2022-12-24T13:38:57.241Z,26.73
2022-12-24T13:41:40.175Z,29.95
2022-12-24T13:44:09.299Z,28.55
2022-12-24T13:47:04.867Z,34.42
2022-12-24T13:49:41.077Z,43.00
2022-12-24T13:52:14.484Z,41.70
2022-12-24T13:54:46.264Z,40.50
2022-12-24T13:57:36.912Z,38.65
2022-12-24T14:00:12.991Z,34.83
2022-12-24T14:03:03.599Z,34.75
2022-12-24T14:05:39.069Z,31.48
2022-12-24T14:08:09.221Z,32.22
2022-12-24T14:10:56.571Z,32.50
2022-12-24T14:13:38.398Z,31.75
2022-12-24T14:16:05.389Z,31.67
2022-12-24T14:18:35.406Z,32.10
2022-12-24T14:21:02.985Z,31.60
2022-12-24T14:23:57.633Z,31.92
2022-12-24T14:26:30.105Z,38.30
2022-12-24T14:29:03.351Z,34.53
2022-12-24T14:31:30.076Z,35.13
2022-12-24T14:34:13.721Z,88.20
2022-12-24T14:36:44.065Z,50.95
2022-12-24T14:39:22.068Z,47.83
2022-12-24T14:42:06.719Z,72.05
2022-12-24T14:44:44.291Z,48.35
2022-12-24T14:47:36.785Z,53.95
2022-12-24T14:50:27.592Z,52.83
2022-12-24T14:53:06.382Z,46.25
2022-12-24T14:55:47.133Z,42.47
2022-12-24T14:58:32.947Z,39.78
2022-12-24T15:01:18.120Z,39.13
2022-12-24T15:03:44.922Z,39.95
2022-12-24T15:06:13.833Z,42.42
2022-12-24T15:08:45.055Z,43.92
2022-12-24T15:11:18.126Z,46.35
2022-12-24T15:13:49.363Z,46.75
2022-12-24T15:16:25.730Z,65.47
2022-12-24T15:18:55.254Z,63.85
2022-12-24T15:21:29.483Z,59.22
2022-12-24T15:23:56.254Z,53.80
2022-12-24T15:26:26.771Z,47.90
2022-12-24T15:29:02.277Z,44.55
2022-12-24T15:31:29.996Z,44.70
2022-12-24T15:33:59.418Z,44.80
2022-12-24T15:36:37.084Z,44.65
2022-12-24T15:39:13.971Z,46.30
2022-12-24T15:42:01.998Z,51.78
2022-12-24T15:44:37.549Z,60.40
2022-12-24T15:47:07.534Z,49.90
2022-12-24T15:49:35.700Z,52.53
2022-12-24T15:52:05.531Z,48.92
2022-12-24T15:54:32.808Z,47.10
2022-12-24T15:56:59.418Z,41.50
2022-12-24T15:59:31.389Z,42.10
2022-12-24T16:02:22.736Z,43.72
2022-12-24T16:04:49.716Z,46.95
2022-12-24T16:07:47.496Z,55.00
2022-12-24T16:10:26.575Z,50.58
2022-12-24T16:12:53.239Z,51.35
2022-12-24T16:15:19.904Z,52.72
2022-12-24T16:17:49.561Z,49.22
2022-12-24T16:20:19.989Z,55.13
2022-12-24T16:22:48.473Z,63.15
2022-12-24T16:25:29.005Z,71.15
2022-12-24T16:27:59.877Z,93.60
2022-12-24T16:30:27.210Z,87.97
2022-12-24T16:32:53.863Z,82.80
2022-12-24T16:35:28.558Z,89.38
2022-12-24T16:37:55.527Z,84.28
2022-12-24T16:40:27.137Z,76.50
2022-12-24T16:43:17.756Z,78.78
2022-12-24T16:45:46.544Z,70.47
2022-12-24T16:48:25.220Z,76.43
2022-12-24T16:50:53.014Z,71.95
2022-12-24T16:53:21.170Z,74.93
2022-12-24T16:55:49.651Z,77.55
2022-12-24T16:58:18.248Z,78.38
2022-12-24T17:00:45.547Z,74.28
2022-12-24T17:03:12.767Z,75.53
2022-12-24T17:05:44.475Z,74.03
2022-12-24T17:08:12.149Z,74.43
2022-12-24T17:10:38.990Z,84.55
2022-12-24T17:13:05.683Z,91.60
2022-12-24T17:15:32.734Z,80.22
2022-12-24T17:17:59.286Z,59.08
2022-12-24T17:20:26.175Z,26.23
2022-12-24T17:22:52.820Z,18.75
2022-12-24T17:25:19.575Z,17.63
2022-12-24T17:27:46.111Z,11.40
2022-12-24T17:30:13.216Z,13.10
2022-12-24T17:32:40.013Z,11.70
2022-12-24T17:35:07.641Z,11.20
2022-12-24T17:37:34.337Z,10.93
2022-12-24T17:40:01.025Z,13.95
2022-12-24T17:42:27.603Z,9.48
2022-12-24T17:44:54.179Z,10.77
2022-12-24T17:47:20.771Z,10.57
2022-12-24T17:49:47.452Z,8.95
2022-12-24T17:52:14.082Z,12.68
2022-12-24T17:54:40.646Z,15.80
2022-12-24T17:57:07.325Z,17.30
2022-12-24T17:59:33.875Z,20.30
2022-12-24T18:02:00.655Z,24.38
2022-12-24T18:04:27.449Z,23.27
2022-12-24T18:07:01.677Z,22.48
2022-12-24T18:09:29.428Z,23.10
2022-12-24T18:11:56.121Z,24.25
2022-12-24T18:14:22.772Z,26.23
2022-12-24T18:16:49.871Z,21.92
2022-12-24T18:19:16.595Z,26.77
2022-12-24T18:21:43.686Z,16.92
2022-12-24T18:24:13.019Z,17.08
2022-12-24T18:26:40.426Z,12.57
2022-12-24T18:31:36.466Z,13.30
2022-12-24T18:34:06.311Z,13.15
2022-12-24T18:36:33.390Z,10.60
2022-12-24T18:38:59.997Z,11.43
2022-12-24T18:41:29.762Z,10.55
2022-12-24T18:43:57.435Z,11.48
2022-12-24T18:46:30.692Z,13.55
2022-12-24T18:48:59.516Z,14.10
2022-12-24T18:51:29.493Z,12.60
2022-12-24T18:53:56.084Z,11.32
2022-12-24T18:56:25.230Z,12.48
2022-12-24T18:58:56.531Z,11.93
2022-12-24T19:01:29.359Z,11.52
2022-12-24T19:03:56.712Z,11.50
2022-12-24T19:06:23.876Z,11.88
2022-12-24T19:08:59.630Z,12.68
2022-12-24T19:16:22.057Z,12.27
2022-12-24T19:18:49.185Z,13.48
2022-12-24T19:21:17.645Z,12.13
2022-12-24T19:23:45.174Z,12.60
2022-12-24T19:28:40.019Z,12.90
2022-12-24T19:31:12.768Z,14.82
2022-12-24T19:33:45.149Z,15.55
2022-12-24T19:36:14.957Z,14.52
2022-12-24T19:38:42.333Z,14.25
2022-12-24T19:43:44.836Z,13.13
2022-12-24T19:46:14.401Z,12.57
2022-12-24T19:48:41.965Z,11.88
2022-12-24T19:51:11.578Z,12.13
2022-12-24T19:53:39.267Z,12.00
2022-12-24T19:56:07.063Z,11.45
2022-12-24T19:58:33.787Z,11.45
2022-12-24T20:01:14.502Z,12.25
2022-12-24T20:03:42.323Z,11.65
2022-12-24T20:06:09.152Z,12.52
2022-12-24T20:08:37.036Z,12.05
2022-12-24T20:11:09.238Z,12.30
2022-12-24T20:13:37.546Z,12.35
2022-12-24T20:16:13.660Z,12.75
2022-12-24T20:18:40.293Z,13.23
2022-12-24T20:21:09.946Z,12.30
2022-12-24T20:23:41.044Z,12.13
2022-12-24T20:26:12.021Z,12.30
2022-12-24T20:28:39.846Z,11.13
2022-12-24T20:31:27.522Z,11.35
2022-12-24T20:33:54.145Z,11.93
2022-12-24T20:36:22.376Z,11.55
2022-12-24T20:38:49.052Z,10.82
2022-12-24T20:41:17.787Z,11.00
2022-12-24T20:43:48.702Z,10.50
2022-12-24T20:46:16.917Z,11.40
2022-12-24T20:48:43.520Z,11.60
2022-12-24T20:51:20.985Z,8.15
2022-12-24T20:53:51.001Z,11.40
2022-12-24T20:58:45.500Z,11.25
2022-12-24T21:01:18.099Z,11.88
2022-12-24T21:03:45.358Z,12.40
2022-12-24T21:06:12.848Z,11.80
2022-12-24T21:08:39.617Z,11.65
2022-12-24T21:11:24.559Z,9.18
2022-12-24T21:13:51.185Z,12.15
2022-12-24T21:16:17.897Z,12.52
2022-12-24T21:18:44.515Z,12.32
2022-12-24T21:21:11.056Z,12.02
2022-12-24T21:23:37.641Z,12.17
2022-12-24T21:26:05.061Z,11.68
2022-12-24T21:30:59.007Z,12.13
2022-12-24T21:33:25.890Z,12.30
2022-12-24T21:35:59.053Z,11.95
2022-12-24T21:38:26.608Z,11.40
2022-12-24T21:41:01.995Z,11.48
2022-12-24T21:43:30.520Z,10.80
2022-12-24T21:45:57.528Z,11.90
2022-12-24T21:48:43.834Z,12.15
2022-12-24T21:51:11.113Z,11.90
2022-12-24T21:53:56.297Z,10.88
2022-12-24T21:56:23.697Z,11.15
2022-12-24T22:01:18.420Z,11.45
2022-12-24T22:03:49.302Z,11.57
2022-12-24T22:06:35.162Z,12.18
2022-12-24T22:09:21.330Z,12.68
2022-12-24T22:11:54.015Z,12.30
2022-12-24T22:14:21.471Z,13.25
2022-12-24T22:16:48.117Z,13.00
2022-12-24T22:19:14.967Z,12.65
2022-12-24T22:21:41.635Z,12.15
2022-12-24T22:24:08.640Z,12.43
2022-12-24T22:26:35.197Z,11.77
2022-12-24T22:29:05.520Z,12.83
2022-12-24T22:31:35.230Z,13.20
2022-12-24T22:34:01.982Z,12.45
2022-12-24T22:36:28.521Z,8.15
2022-12-24T22:38:55.278Z,9.13
2022-12-24T22:41:21.847Z,11.57
2022-12-24T22:43:49.717Z,12.07
2022-12-24T22:46:16.894Z,12.93
2022-12-24T22:48:44.810Z,12.45
2022-12-24T22:51:14.385Z,13.35
2022-12-24T22:53:41.674Z,13.00
2022-12-24T22:56:09.527Z,13.93
2022-12-24T22:58:37.130Z,13.40
2022-12-24T23:01:04.241Z,12.93
2022-12-24T23:03:31.110Z,13.02
2022-12-24T23:06:00.012Z,13.30
2022-12-24T23:08:27.558Z,13.30
2022-12-24T23:11:03.874Z,13.68
2022-12-24T23:13:49.057Z,13.60
2022-12-24T23:16:15.747Z,13.75
2022-12-24T23:18:42.362Z,12.93
2022-12-24T23:21:08.952Z,13.82
2022-12-24T23:23:37.409Z,12.90
2022-12-24T23:26:09.760Z,13.25
2022-12-24T23:28:37.067Z,13.68
2022-12-24T23:31:04.299Z,13.80
2022-12-24T23:33:31.101Z,13.05
2022-12-24T23:35:57.720Z,13.70
2022-12-24T23:38:24.320Z,13.38
2022-12-24T23:40:51.059Z,13.20
2022-12-24T23:43:17.618Z,9.63
2022-12-24T23:45:49.993Z,12.57
2022-12-24T23:48:16.618Z,12.15
2022-12-24T23:50:43.993Z,13.60
2022-12-24T23:55:38.176Z,13.80
